sensor_id;sensor_type;location;lat;lon;timestamp;P1;durP1;ratioP1;P2;durP2;ratioP2
13171;SDS011;6651;53.200;10.432;2022-12-26T00:01:25;19.13;;;11.05;;
13171;SDS011;6651;53.200;10.432;2022-12-26T00:03:52;20.52;;;11.05;;
13171;SDS011;6651;53.200;10.432;2022-12-26T00:06:20;23.27;;;11.85;;
13171;SDS011;6651;53.200;10.432;2022-12-26T00:08:46;21.40;;;12.02;;
13171;SDS011;6651;53.200;10.432;2022-12-26T00:11:13;19.00;;;11.27;;
13171;SDS011;6651;53.200;10.432;2022-12-26T00:13:39;19.55;;;10.85;;
13171;SDS011;6651;53.200;10.432;2022-12-26T00:16:07;20.02;;;11.85;;
13171;SDS011;6651;53.200;10.432;2022-12-26T00:18:33;23.85;;;11.88;;
13171;SDS011;6651;53.200;10.432;2022-12-26T00:20:59;19.60;;;11.00;;
13171;SDS011;6651;53.200;10.432;2022-12-26T00:23:25;20.65;;;11.07;;
13171;SDS011;6651;53.200;10.432;2022-12-26T00:25:51;14.65;;;9.50;;
13171;SDS011;6651;53.200;10.432;2022-12-26T00:28:17;23.73;;;11.00;;
13171;SDS011;6651;53.200;10.432;2022-12-26T00:30:43;57.20;;;11.65;;
13171;SDS011;6651;53.200;10.432;2022-12-26T00:33:09;17.27;;;10.75;;
13171;SDS011;6651;53.200;10.432;2022-12-26T00:35:35;20.45;;;11.90;;
13171;SDS011;6651;53.200;10.432;2022-12-26T00:38:02;22.33;;;11.05;;
13171;SDS011;6651;53.200;10.432;2022-12-26T00:40:28;14.90;;;9.70;;
13171;SDS011;6651;53.200;10.432;2022-12-26T00:42:54;18.85;;;10.73;;
13171;SDS011;6651;53.200;10.432;2022-12-26T00:45:20;20.48;;;11.93;;
13171;SDS011;6651;53.200;10.432;2022-12-26T00:47:46;18.02;;;11.50;;
13171;SDS011;6651;53.200;10.432;2022-12-26T00:50:12;16.00;;;10.43;;
13171;SDS011;6651;53.200;10.432;2022-12-26T00:52:38;18.35;;;12.10;;
13171;SDS011;6651;53.200;10.432;2022-12-26T00:55:04;16.88;;;11.55;;
13171;SDS011;6651;53.200;10.432;2022-12-26T00:57:30;13.93;;;9.63;;
13171;SDS011;6651;53.200;10.432;2022-12-26T00:59:56;14.65;;;9.98;;
13171;SDS011;6651;53.200;10.432;2022-12-26T01:02:22;14.48;;;9.68;;
13171;SDS011;6651;53.200;10.432;2022-12-26T01:05:07;15.02;;;10.57;;
13171;SDS011;6651;53.200;10.432;2022-12-26T01:07:34;12.68;;;9.52;;
13171;SDS011;6651;53.200;10.432;2022-12-26T01:10:01;23.23;;;12.82;;
13171;SDS011;6651;53.200;10.432;2022-12-26T01:12:27;19.30;;;12.38;;
13171;SDS011;6651;53.200;10.432;2022-12-26T01:14:54;16.50;;;11.60;;
13171;SDS011;6651;53.200;10.432;2022-12-26T01:17:21;23.15;;;14.15;;
13171;SDS011;6651;53.200;10.432;2022-12-26T01:19:47;25.15;;;13.90;;
13171;SDS011;6651;53.200;10.432;2022-12-26T01:22:13;20.02;;;12.52;;
13171;SDS011;6651;53.200;10.432;2022-12-26T01:24:39;21.10;;;12.38;;
13171;SDS011;6651;53.200;10.432;2022-12-26T01:27:05;17.48;;;11.07;;
13171;SDS011;6651;53.200;10.432;2022-12-26T01:29:31;24.90;;;12.82;;
13171;SDS011;6651;53.200;10.432;2022-12-26T01:31:57;20.58;;;12.20;;
13171;SDS011;6651;53.200;10.432;2022-12-26T01:34:23;22.70;;;13.38;;
13171;SDS011;6651;53.200;10.432;2022-12-26T01:36:50;22.08;;;13.05;;
13171;SDS011;6651;53.200;10.432;2022-12-26T01:39:16;27.65;;;14.40;;
13171;SDS011;6651;53.200;10.432;2022-12-26T01:41:42;22.33;;;14.68;;
13171;SDS011;6651;53.200;10.432;2022-12-26T01:46:53;17.92;;;11.88;;
13171;SDS011;6651;53.200;10.432;2022-12-26T01:49:28;23.75;;;13.98;;
13171;SDS011;6651;53.200;10.432;2022-12-26T01:52:05;23.92;;;12.88;;
13171;SDS011;6651;53.200;10.432;2022-12-26T01:54:33;23.20;;;12.65;;
13171;SDS011;6651;53.200;10.432;2022-12-26T01:57:01;21.25;;;12.25;;
13171;SDS011;6651;53.200;10.432;2022-12-26T01:59:29;22.85;;;13.27;;
13171;SDS011;6651;53.200;10.432;2022-12-26T02:01:55;31.88;;;14.75;;
13171;SDS011;6651;53.200;10.432;2022-12-26T02:04:30;22.77;;;13.18;;
13171;SDS011;6651;53.200;10.432;2022-12-26T02:07:17;26.50;;;12.63;;
13171;SDS011;6651;53.200;10.432;2022-12-26T02:09:43;26.60;;;14.40;;
13171;SDS011;6651;53.200;10.432;2022-12-26T02:14:35;27.30;;;13.65;;
13171;SDS011;6651;53.200;10.432;2022-12-26T02:17:02;23.45;;;13.27;;
13171;SDS011;6651;53.200;10.432;2022-12-26T02:22:19;30.83;;;14.50;;
13171;SDS011;6651;53.200;10.432;2022-12-26T02:25:02;26.08;;;14.13;;
13171;SDS011;6651;53.200;10.432;2022-12-26T02:30:21;24.35;;;13.57;;
13171;SDS011;6651;53.200;10.432;2022-12-26T02:32:50;26.30;;;14.25;;
13171;SDS011;6651;53.200;10.432;2022-12-26T02:35:25;21.45;;;12.60;;
13171;SDS011;6651;53.200;10.432;2022-12-26T02:40:35;24.77;;;13.85;;
13171;SDS011;6651;53.200;10.432;2022-12-26T02:43:18;23.77;;;12.30;;
13171;SDS011;6651;53.200;10.432;2022-12-26T02:46:02;24.83;;;13.43;;
13171;SDS011;6651;53.200;10.432;2022-12-26T02:54:42;26.83;;;13.38;;
13171;SDS011;6651;53.200;10.432;2022-12-26T02:57:40;21.13;;;12.27;;
13171;SDS011;6651;53.200;10.432;2022-12-26T03:00:27;20.58;;;12.32;;
13171;SDS011;6651;53.200;10.432;2022-12-26T03:03:19;19.50;;;11.95;;
13171;SDS011;6651;53.200;10.432;2022-12-26T03:06:11;22.55;;;11.50;;
13171;SDS011;6651;53.200;10.432;2022-12-26T03:08:58;20.23;;;11.48;;
13171;SDS011;6651;53.200;10.432;2022-12-26T03:11:44;22.33;;;13.05;;
13171;SDS011;6651;53.200;10.432;2022-12-26T03:14:34;22.17;;;11.45;;
13171;SDS011;6651;53.200;10.432;2022-12-26T03:17:08;14.82;;;10.10;;
13171;SDS011;6651;53.200;10.432;2022-12-26T03:19:46;20.40;;;11.88;;
13171;SDS011;6651;53.200;10.432;2022-12-26T03:22:40;17.08;;;10.82;;
13171;SDS011;6651;53.200;10.432;2022-12-26T03:25:09;19.83;;;12.13;;
13171;SDS011;6651;53.200;10.432;2022-12-26T03:27:54;19.55;;;11.85;;
13171;SDS011;6651;53.200;10.432;2022-12-26T03:30:20;19.10;;;11.40;;
13171;SDS011;6651;53.200;10.432;2022-12-26T03:33:05;14.18;;;9.77;;
13171;SDS011;6651;53.200;10.432;2022-12-26T03:35:51;18.13;;;10.93;;
13171;SDS011;6651;53.200;10.432;2022-12-26T03:38:17;15.27;;;9.95;;
13171;SDS011;6651;53.200;10.432;2022-12-26T03:49:07;15.38;;;9.95;;
13171;SDS011;6651;53.200;10.432;2022-12-26T03:51:58;12.80;;;9.55;;
13171;SDS011;6651;53.200;10.432;2022-12-26T03:57:32;15.13;;;9.18;;
13171;SDS011;6651;53.200;10.432;2022-12-26T04:00:19;15.60;;;10.35;;
13171;SDS011;6651;53.200;10.432;2022-12-26T04:03:05;11.93;;;8.85;;
13171;SDS011;6651;53.200;10.432;2022-12-26T04:05:50;17.70;;;10.30;;
13171;SDS011;6651;53.200;10.432;2022-12-26T04:08:58;15.90;;;9.15;;
13171;SDS011;6651;53.200;10.432;2022-12-26T04:11:41;16.90;;;9.75;;
13171;SDS011;6651;53.200;10.432;2022-12-26T04:14:36;13.93;;;9.40;;
13171;SDS011;6651;53.200;10.432;2022-12-26T04:17:25;13.73;;;8.73;;
13171;SDS011;6651;53.200;10.432;2022-12-26T04:20:15;13.18;;;9.20;;
13171;SDS011;6651;53.200;10.432;2022-12-26T04:22:44;14.52;;;9.05;;
13171;SDS011;6651;53.200;10.432;2022-12-26T04:25:38;14.60;;;9.57;;
13171;SDS011;6651;53.200;10.432;2022-12-26T04:28:25;14.27;;;9.05;;
13171;SDS011;6651;53.200;10.432;2022-12-26T04:34:21;10.10;;;7.93;;
13171;SDS011;6651;53.200;10.432;2022-12-26T04:37:11;11.02;;;7.70;;
13171;SDS011;6651;53.200;10.432;2022-12-26T04:39:59;10.55;;;7.60;;
13171;SDS011;6651;53.200;10.432;2022-12-26T04:42:45;10.38;;;7.35;;
13171;SDS011;6651;53.200;10.432;2022-12-26T04:45:30;11.75;;;7.88;;
13171;SDS011;6651;53.200;10.432;2022-12-26T04:47:56;10.00;;;7.38;;
13171;SDS011;6651;53.200;10.432;2022-12-26T04:50:50;11.55;;;7.47;;
13171;SDS011;6651;53.200;10.432;2022-12-26T04:53:16;10.20;;;7.30;;
13171;SDS011;6651;53.200;10.432;2022-12-26T04:55:42;9.65;;;6.85;;
13171;SDS011;6651;53.200;10.432;2022-12-26T04:58:09;8.63;;;6.43;;
13171;SDS011;6651;53.200;10.432;2022-12-26T05:00:35;10.73;;;6.78;;
13171;SDS011;6651;53.200;10.432;2022-12-26T05:03:01;10.80;;;7.32;;
13171;SDS011;6651;53.200;10.432;2022-12-26T05:05:46;9.52;;;7.03;;
13171;SDS011;6651;53.200;10.432;2022-12-26T05:08:32;9.07;;;6.53;;
13171;SDS011;6651;53.200;10.432;2022-12-26T05:11:17;10.43;;;7.38;;
13171;SDS011;6651;53.200;10.432;2022-12-26T05:13:43;10.75;;;7.93;;
13171;SDS011;6651;53.200;10.432;2022-12-26T05:16:09;10.25;;;7.22;;
13171;SDS011;6651;53.200;10.432;2022-12-26T05:18:54;9.73;;;7.28;;
13171;SDS011;6651;53.200;10.432;2022-12-26T05:21:38;10.15;;;7.05;;
13171;SDS011;6651;53.200;10.432;2022-12-26T05:24:23;9.38;;;6.85;;
13171;SDS011;6651;53.200;10.432;2022-12-26T05:27:12;9.60;;;7.38;;
13171;SDS011;6651;53.200;10.432;2022-12-26T05:29:59;9.05;;;6.95;;
13171;SDS011;6651;53.200;10.432;2022-12-26T05:32:25;16.25;;;6.90;;
13171;SDS011;6651;53.200;10.432;2022-12-26T05:35:09;9.02;;;6.63;;
13171;SDS011;6651;53.200;10.432;2022-12-26T05:37:35;9.32;;;6.75;;
13171;SDS011;6651;53.200;10.432;2022-12-26T05:40:02;9.25;;;6.00;;
13171;SDS011;6651;53.200;10.432;2022-12-26T05:42:28;8.13;;;5.40;;
13171;SDS011;6651;53.200;10.432;2022-12-26T05:44:54;7.00;;;5.22;;
13171;SDS011;6651;53.200;10.432;2022-12-26T05:47:20;9.73;;;6.05;;
13171;SDS011;6651;53.200;10.432;2022-12-26T05:49:46;7.32;;;5.28;;
13171;SDS011;6651;53.200;10.432;2022-12-26T05:52:11;8.00;;;5.50;;
13171;SDS011;6651;53.200;10.432;2022-12-26T05:54:37;7.88;;;5.55;;
13171;SDS011;6651;53.200;10.432;2022-12-26T05:57:03;7.00;;;4.95;;
13171;SDS011;6651;53.200;10.432;2022-12-26T05:59:29;8.35;;;5.50;;
13171;SDS011;6651;53.200;10.432;2022-12-26T06:01:55;9.05;;;5.43;;
13171;SDS011;6651;53.200;10.432;2022-12-26T06:04:21;8.27;;;5.03;;
13171;SDS011;6651;53.200;10.432;2022-12-26T06:06:47;8.05;;;5.03;;
13171;SDS011;6651;53.200;10.432;2022-12-26T06:09:13;6.32;;;4.55;;
13171;SDS011;6651;53.200;10.432;2022-12-26T06:11:39;8.77;;;5.50;;
13171;SDS011;6651;53.200;10.432;2022-12-26T06:14:05;6.07;;;4.68;;
13171;SDS011;6651;53.200;10.432;2022-12-26T06:16:31;6.22;;;4.55;;
13171;SDS011;6651;53.200;10.432;2022-12-26T06:18:57;5.35;;;4.50;;
13171;SDS011;6651;53.200;10.432;2022-12-26T06:21:23;6.45;;;4.85;;
13171;SDS011;6651;53.200;10.432;2022-12-26T06:23:50;8.05;;;4.75;;
13171;SDS011;6651;53.200;10.432;2022-12-26T06:26:16;5.30;;;4.30;;
13171;SDS011;6651;53.200;10.432;2022-12-26T06:28:42;6.32;;;4.35;;
13171;SDS011;6651;53.200;10.432;2022-12-26T06:31:15;4.88;;;3.97;;
13171;SDS011;6651;53.200;10.432;2022-12-26T06:33:44;6.05;;;4.57;;
13171;SDS011;6651;53.200;10.432;2022-12-26T06:36:14;5.45;;;4.20;;
13171;SDS011;6651;53.200;10.432;2022-12-26T06:38:41;4.75;;;4.07;;
13171;SDS011;6651;53.200;10.432;2022-12-26T06:41:07;6.35;;;4.78;;
13171;SDS011;6651;53.200;10.432;2022-12-26T06:43:33;6.72;;;4.85;;
13171;SDS011;6651;53.200;10.432;2022-12-26T06:46:00;9.90;;;5.63;;
13171;SDS011;6651;53.200;10.432;2022-12-26T06:48:26;8.82;;;6.25;;
13171;SDS011;6651;53.200;10.432;2022-12-26T06:50:52;7.95;;;6.03;;
13171;SDS011;6651;53.200;10.432;2022-12-26T06:53:19;12.23;;;7.80;;
13171;SDS011;6651;53.200;10.432;2022-12-26T06:55:45;10.45;;;7.03;;
13171;SDS011;6651;53.200;10.432;2022-12-26T06:58:11;10.48;;;7.43;;
13171;SDS011;6651;53.200;10.432;2022-12-26T07:00:37;14.80;;;8.77;;
13171;SDS011;6651;53.200;10.432;2022-12-26T07:03:03;17.92;;;10.68;;
13171;SDS011;6651;53.200;10.432;2022-12-26T07:05:29;14.68;;;10.20;;
13171;SDS011;6651;53.200;10.432;2022-12-26T07:07:55;17.02;;;11.02;;
13171;SDS011;6651;53.200;10.432;2022-12-26T07:10:21;15.57;;;11.70;;
13171;SDS011;6651;53.200;10.432;2022-12-26T07:12:47;22.13;;;13.05;;
13171;SDS011;6651;53.200;10.432;2022-12-26T07:15:14;21.30;;;14.02;;
13171;SDS011;6651;53.200;10.432;2022-12-26T07:17:40;23.48;;;14.52;;
13171;SDS011;6651;53.200;10.432;2022-12-26T07:20:06;22.08;;;14.65;;
13171;SDS011;6651;53.200;10.432;2022-12-26T07:22:32;22.92;;;15.30;;
13171;SDS011;6651;53.200;10.432;2022-12-26T07:24:58;29.27;;;18.00;;
13171;SDS011;6651;53.200;10.432;2022-12-26T07:27:24;30.48;;;19.00;;
13171;SDS011;6651;53.200;10.432;2022-12-26T07:29:50;23.77;;;17.10;;
13171;SDS011;6651;53.200;10.432;2022-12-26T07:32:16;27.38;;;17.20;;
13171;SDS011;6651;53.200;10.432;2022-12-26T07:34:42;35.67;;;20.20;;
13171;SDS011;6651;53.200;10.432;2022-12-26T07:37:08;31.58;;;20.45;;
13171;SDS011;6651;53.200;10.432;2022-12-26T07:39:34;32.20;;;20.40;;
13171;SDS011;6651;53.200;10.432;2022-12-26T07:42:01;25.67;;;18.13;;
13171;SDS011;6651;53.200;10.432;2022-12-26T07:44:28;30.33;;;19.55;;
13171;SDS011;6651;53.200;10.432;2022-12-26T07:46:55;29.40;;;19.20;;
13171;SDS011;6651;53.200;10.432;2022-12-26T07:49:21;26.85;;;18.75;;
13171;SDS011;6651;53.200;10.432;2022-12-26T07:51:47;26.40;;;17.35;;
13171;SDS011;6651;53.200;10.432;2022-12-26T07:54:14;26.60;;;17.67;;
13171;SDS011;6651;53.200;10.432;2022-12-26T07:56:40;30.40;;;19.35;;
13171;SDS011;6651;53.200;10.432;2022-12-26T07:59:06;25.88;;;17.70;;
13171;SDS011;6651;53.200;10.432;2022-12-26T08:01:32;29.00;;;18.95;;
13171;SDS011;6651;53.200;10.432;2022-12-26T08:03:58;22.42;;;16.60;;
13171;SDS011;6651;53.200;10.432;2022-12-26T08:06:24;25.90;;;18.00;;
13171;SDS011;6651;53.200;10.432;2022-12-26T08:08:50;27.10;;;17.63;;
13171;SDS011;6651;53.200;10.432;2022-12-26T08:11:18;26.17;;;17.85;;
13171;SDS011;6651;53.200;10.432;2022-12-26T08:13:45;25.02;;;16.95;;
13171;SDS011;6651;53.200;10.432;2022-12-26T08:16:11;25.13;;;17.55;;
13171;SDS011;6651;53.200;10.432;2022-12-26T08:18:38;28.80;;;19.17;;
13171;SDS011;6651;53.200;10.432;2022-12-26T08:21:05;26.83;;;17.92;;
13171;SDS011;6651;53.200;10.432;2022-12-26T08:23:31;27.90;;;18.15;;
13171;SDS011;6651;53.200;10.432;2022-12-26T08:25:57;28.60;;;19.77;;
13171;SDS011;6651;53.200;10.432;2022-12-26T08:28:23;27.83;;;18.02;;
13171;SDS011;6651;53.200;10.432;2022-12-26T08:30:49;26.85;;;18.08;;
13171;SDS011;6651;53.200;10.432;2022-12-26T08:33:15;28.00;;;17.83;;
13171;SDS011;6651;53.200;10.432;2022-12-26T08:35:42;26.98;;;17.80;;
13171;SDS011;6651;53.200;10.432;2022-12-26T08:38:08;23.55;;;18.00;;
13171;SDS011;6651;53.200;10.432;2022-12-26T08:40:34;28.23;;;18.88;;
13171;SDS011;6651;53.200;10.432;2022-12-26T08:43:01;25.42;;;17.85;;
13171;SDS011;6651;53.200;10.432;2022-12-26T08:45:27;26.30;;;18.10;;
13171;SDS011;6651;53.200;10.432;2022-12-26T08:47:53;22.58;;;16.90;;
13171;SDS011;6651;53.200;10.432;2022-12-26T08:50:19;24.63;;;18.35;;
13171;SDS011;6651;53.200;10.432;2022-12-26T08:52:45;21.90;;;16.45;;
13171;SDS011;6651;53.200;10.432;2022-12-26T08:55:11;23.13;;;17.77;;
13171;SDS011;6651;53.200;10.432;2022-12-26T08:57:37;23.10;;;16.73;;
13171;SDS011;6651;53.200;10.432;2022-12-26T09:00:04;24.15;;;17.35;;
13171;SDS011;6651;53.200;10.432;2022-12-26T09:02:31;22.05;;;16.42;;
13171;SDS011;6651;53.200;10.432;2022-12-26T09:04:57;21.25;;;16.13;;
13171;SDS011;6651;53.200;10.432;2022-12-26T09:07:23;23.02;;;17.10;;
13171;SDS011;6651;53.200;10.432;2022-12-26T09:09:49;24.33;;;15.98;;
13171;SDS011;6651;53.200;10.432;2022-12-26T09:12:15;21.15;;;15.73;;
13171;SDS011;6651;53.200;10.432;2022-12-26T09:14:41;19.40;;;15.23;;
13171;SDS011;6651;53.200;10.432;2022-12-26T09:17:08;19.55;;;14.88;;
13171;SDS011;6651;53.200;10.432;2022-12-26T09:19:35;19.83;;;14.30;;
13171;SDS011;6651;53.200;10.432;2022-12-26T09:22:01;21.63;;;15.60;;
13171;SDS011;6651;53.200;10.432;2022-12-26T09:24:46;19.50;;;14.45;;
13171;SDS011;6651;53.200;10.432;2022-12-26T09:27:12;18.15;;;14.75;;
13171;SDS011;6651;53.200;10.432;2022-12-26T09:29:38;20.27;;;14.55;;
13171;SDS011;6651;53.200;10.432;2022-12-26T09:32:04;19.40;;;14.68;;
13171;SDS011;6651;53.200;10.432;2022-12-26T09:34:30;18.63;;;15.18;;
13171;SDS011;6651;53.200;10.432;2022-12-26T09:36:56;18.27;;;14.15;;
13171;SDS011;6651;53.200;10.432;2022-12-26T09:39:22;17.02;;;14.10;;
13171;SDS011;6651;53.200;10.432;2022-12-26T09:47:26;18.80;;;14.38;;
13171;SDS011;6651;53.200;10.432;2022-12-26T09:50:14;19.55;;;14.90;;
13171;SDS011;6651;53.200;10.432;2022-12-26T09:52:49;19.90;;;14.75;;
13171;SDS011;6651;53.200;10.432;2022-12-26T09:57:42;18.83;;;15.07;;
13171;SDS011;6651;53.200;10.432;2022-12-26T10:00:11;20.42;;;16.05;;
13171;SDS011;6651;53.200;10.432;2022-12-26T10:02:41;19.52;;;14.90;;
13171;SDS011;6651;53.200;10.432;2022-12-26T10:05:11;22.38;;;15.95;;
13171;SDS011;6651;53.200;10.432;2022-12-26T10:07:45;20.92;;;15.50;;
13171;SDS011;6651;53.200;10.432;2022-12-26T10:10:22;21.10;;;15.10;;
13171;SDS011;6651;53.200;10.432;2022-12-26T10:13:05;18.95;;;14.73;;
13171;SDS011;6651;53.200;10.432;2022-12-26T10:18:26;19.70;;;15.48;;
13171;SDS011;6651;53.200;10.432;2022-12-26T10:23:41;19.23;;;14.80;;
13171;SDS011;6651;53.200;10.432;2022-12-26T10:26:19;18.58;;;14.98;;
13171;SDS011;6651;53.200;10.432;2022-12-26T10:29:01;21.85;;;15.93;;
13171;SDS011;6651;53.200;10.432;2022-12-26T10:31:31;20.45;;;15.43;;
13171;SDS011;6651;53.200;10.432;2022-12-26T10:34:04;20.70;;;15.65;;
13171;SDS011;6651;53.200;10.432;2022-12-26T10:36:35;20.83;;;16.58;;
13171;SDS011;6651;53.200;10.432;2022-12-26T10:39:02;24.98;;;17.08;;
13171;SDS011;6651;53.200;10.432;2022-12-26T10:41:40;19.25;;;15.18;;
13171;SDS011;6651;53.200;10.432;2022-12-26T10:44:12;19.85;;;15.35;;
13171;SDS011;6651;53.200;10.432;2022-12-26T10:49:25;19.90;;;14.93;;
13171;SDS011;6651;53.200;10.432;2022-12-26T10:51:52;20.67;;;15.50;;
13171;SDS011;6651;53.200;10.432;2022-12-26T10:54:19;20.67;;;15.95;;
13171;SDS011;6651;53.200;10.432;2022-12-26T10:56:47;20.92;;;15.93;;
13171;SDS011;6651;53.200;10.432;2022-12-26T10:59:16;18.63;;;14.57;;
13171;SDS011;6651;53.200;10.432;2022-12-26T11:01:47;18.60;;;14.77;;
13171;SDS011;6651;53.200;10.432;2022-12-26T11:04:18;20.00;;;14.30;;
13171;SDS011;6651;53.200;10.432;2022-12-26T11:06:46;17.30;;;13.23;;
13171;SDS011;6651;53.200;10.432;2022-12-26T11:09:58;15.75;;;12.98;;
13171;SDS011;6651;53.200;10.432;2022-12-26T11:12:16;15.45;;;11.57;;
13171;SDS011;6651;53.200;10.432;2022-12-26T11:14:44;18.30;;;11.35;;
13171;SDS011;6651;53.200;10.432;2022-12-26T11:17:11;15.38;;;11.82;;
13171;SDS011;6651;53.200;10.432;2022-12-26T11:19:41;11.88;;;10.10;;
13171;SDS011;6651;53.200;10.432;2022-12-26T11:22:19;12.98;;;10.77;;
13171;SDS011;6651;53.200;10.432;2022-12-26T11:25:00;11.40;;;9.68;;
13171;SDS011;6651;53.200;10.432;2022-12-26T11:27:26;12.00;;;10.05;;
13171;SDS011;6651;53.200;10.432;2022-12-26T11:30:09;14.07;;;10.20;;
13171;SDS011;6651;53.200;10.432;2022-12-26T11:32:35;12.43;;;9.88;;
13171;SDS011;6651;53.200;10.432;2022-12-26T11:35:01;11.73;;;9.35;;
13171;SDS011;6651;53.200;10.432;2022-12-26T11:37:29;11.88;;;9.27;;
13171;SDS011;6651;53.200;10.432;2022-12-26T11:39:56;12.20;;;8.98;;
13171;SDS011;6651;53.200;10.432;2022-12-26T11:42:22;11.02;;;9.13;;
13171;SDS011;6651;53.200;10.432;2022-12-26T11:44:50;10.98;;;8.25;;
13171;SDS011;6651;53.200;10.432;2022-12-26T11:47:19;9.98;;;8.00;;
13171;SDS011;6651;53.200;10.432;2022-12-26T11:49:53;11.18;;;8.73;;
13171;SDS011;6651;53.200;10.432;2022-12-26T11:54:55;9.70;;;7.53;;
13171;SDS011;6651;53.200;10.432;2022-12-26T11:57:28;11.13;;;7.53;;
13171;SDS011;6651;53.200;10.432;2022-12-26T12:00:12;9.82;;;7.07;;
13171;SDS011;6651;53.200;10.432;2022-12-26T12:02:39;8.85;;;6.65;;
13171;SDS011;6651;53.200;10.432;2022-12-26T12:05:11;8.05;;;6.43;;
13171;SDS011;6651;53.200;10.432;2022-12-26T12:10:22;7.78;;;6.32;;
13171;SDS011;6651;53.200;10.432;2022-12-26T12:12:56;8.57;;;6.15;;
13171;SDS011;6651;53.200;10.432;2022-12-26T12:15:27;9.50;;;5.93;;
13171;SDS011;6651;53.200;10.432;2022-12-26T12:18:05;10.90;;;6.53;;
13171;SDS011;6651;53.200;10.432;2022-12-26T12:26:14;9.90;;;5.82;;
13171;SDS011;6651;53.200;10.432;2022-12-26T12:33:38;9.05;;;5.30;;
13171;SDS011;6651;53.200;10.432;2022-12-26T12:36:07;7.28;;;5.55;;
13171;SDS011;6651;53.200;10.432;2022-12-26T12:38:39;6.93;;;5.07;;
13171;SDS011;6651;53.200;10.432;2022-12-26T12:43:45;8.00;;;5.18;;
13171;SDS011;6651;53.200;10.432;2022-12-26T13:00:10;7.22;;;5.70;;
13171;SDS011;6651;53.200;10.432;2022-12-26T13:02:39;10.07;;;5.53;;
13171;SDS011;6651;53.200;10.432;2022-12-26T13:11:28;9.77;;;5.70;;
13171;SDS011;6651;53.200;10.432;2022-12-26T13:13:43;8.73;;;5.28;;
13171;SDS011;6651;53.200;10.432;2022-12-26T13:16:18;7.32;;;5.32;;
13171;SDS011;6651;53.200;10.432;2022-12-26T13:18:48;9.18;;;5.20;;
13171;SDS011;6651;53.200;10.432;2022-12-26T13:21:15;9.60;;;5.22;;
13171;SDS011;6651;53.200;10.432;2022-12-26T13:26:42;7.68;;;4.75;;
13171;SDS011;6651;53.200;10.432;2022-12-26T13:29:17;7.45;;;5.18;;
13171;SDS011;6651;53.200;10.432;2022-12-26T13:31:44;6.80;;;4.65;;
13171;SDS011;6651;53.200;10.432;2022-12-26T13:34:13;7.60;;;4.70;;
13171;SDS011;6651;53.200;10.432;2022-12-26T13:39:15;7.85;;;4.68;;
13171;SDS011;6651;53.200;10.432;2022-12-26T13:41:47;6.88;;;4.82;;
13171;SDS011;6651;53.200;10.432;2022-12-26T13:44:33;6.20;;;3.90;;
13171;SDS011;6651;53.200;10.432;2022-12-26T13:46:59;12.57;;;8.43;;
13171;SDS011;6651;53.200;10.432;2022-12-26T13:54:37;14.02;;;9.02;;
13171;SDS011;6651;53.200;10.432;2022-12-26T14:05:12;11.82;;;7.57;;
13171;SDS011;6651;53.200;10.432;2022-12-26T14:07:45;14.70;;;9.07;;
13171;SDS011;6651;53.200;10.432;2022-12-26T14:10:20;9.35;;;5.05;;
13171;SDS011;6651;53.200;10.432;2022-12-26T14:25:54;4.97;;;2.13;;
13171;SDS011;6651;53.200;10.432;2022-12-26T14:31:07;3.40;;;1.50;;
13171;SDS011;6651;53.200;10.432;2022-12-26T14:33:43;2.53;;;1.05;;
13171;SDS011;6651;53.200;10.432;2022-12-26T14:36:18;1.85;;;1.20;;
13171;SDS011;6651;53.200;10.432;2022-12-26T14:41:11;1.55;;;1.13;;
13171;SDS011;6651;53.200;10.432;2022-12-26T14:52:26;2.35;;;1.50;;
13171;SDS011;6651;53.200;10.432;2022-12-26T14:54:41;3.25;;;1.50;;
13171;SDS011;6651;53.200;10.432;2022-12-26T15:00:07;3.25;;;1.52;;
13171;SDS011;6651;53.200;10.432;2022-12-26T15:02:37;2.53;;;1.33;;
13171;SDS011;6651;53.200;10.432;2022-12-26T15:05:21;3.13;;;1.27;;
13171;SDS011;6651;53.200;10.432;2022-12-26T15:10:19;1.95;;;0.82;;
13171;SDS011;6651;53.200;10.432;2022-12-26T15:21:10;5.32;;;1.70;;
13171;SDS011;6651;53.200;10.432;2022-12-26T15:33:40;4.15;;;1.45;;
13171;SDS011;6651;53.200;10.432;2022-12-26T15:38:49;6.13;;;3.15;;
13171;SDS011;6651;53.200;10.432;2022-12-26T15:41:22;2.05;;;1.42;;
13171;SDS011;6651;53.200;10.432;2022-12-26T15:46:25;5.00;;;1.63;;
13171;SDS011;6651;53.200;10.432;2022-12-26T15:54:14;3.83;;;1.90;;
13171;SDS011;6651;53.200;10.432;2022-12-26T15:56:49;3.58;;;1.70;;
13171;SDS011;6651;53.200;10.432;2022-12-26T16:01:48;4.05;;;1.50;;
13171;SDS011;6651;53.200;10.432;2022-12-26T16:09:31;3.92;;;1.88;;
13171;SDS011;6651;53.200;10.432;2022-12-26T16:12:01;5.75;;;1.83;;
13171;SDS011;6651;53.200;10.432;2022-12-26T16:14:28;4.40;;;1.80;;
13171;SDS011;6651;53.200;10.432;2022-12-26T16:17:08;5.07;;;1.90;;
13171;SDS011;6651;53.200;10.432;2022-12-26T16:19:34;6.63;;;2.17;;
13171;SDS011;6651;53.200;10.432;2022-12-26T16:22:01;6.18;;;2.20;;
13171;SDS011;6651;53.200;10.432;2022-12-26T16:24:47;7.97;;;2.25;;
13171;SDS011;6651;53.200;10.432;2022-12-26T16:27:18;8.65;;;2.20;;
13171;SDS011;6651;53.200;10.432;2022-12-26T16:29:45;7.25;;;2.58;;
13171;SDS011;6651;53.200;10.432;2022-12-26T16:32:14;9.07;;;3.15;;
13171;SDS011;6651;53.200;10.432;2022-12-26T16:34:40;9.05;;;3.53;;
13171;SDS011;6651;53.200;10.432;2022-12-26T16:37:08;14.82;;;4.05;;
13171;SDS011;6651;53.200;10.432;2022-12-26T16:39:36;10.45;;;4.20;;
13171;SDS011;6651;53.200;10.432;2022-12-26T16:42:03;6.20;;;2.47;;
13171;SDS011;6651;53.200;10.432;2022-12-26T16:47:05;14.45;;;5.78;;
13171;SDS011;6651;53.200;10.432;2022-12-26T16:49:32;9.02;;;3.25;;
13171;SDS011;6651;53.200;10.432;2022-12-26T16:51:58;7.78;;;3.55;;
13171;SDS011;6651;53.200;10.432;2022-12-26T16:54:29;10.40;;;3.42;;
13171;SDS011;6651;53.200;10.432;2022-12-26T16:57:03;12.90;;;3.45;;
13171;SDS011;6651;53.200;10.432;2022-12-26T16:59:35;10.93;;;4.07;;
13171;SDS011;6651;53.200;10.432;2022-12-26T17:02:02;7.13;;;2.83;;
13171;SDS011;6651;53.200;10.432;2022-12-26T17:04:29;9.50;;;3.00;;
13171;SDS011;6651;53.200;10.432;2022-12-26T17:06:57;8.40;;;3.40;;
13171;SDS011;6651;53.200;10.432;2022-12-26T17:09:24;10.68;;;2.72;;
13171;SDS011;6651;53.200;10.432;2022-12-26T17:11:59;10.70;;;3.10;;
13171;SDS011;6651;53.200;10.432;2022-12-26T17:14:27;10.10;;;2.85;;
13171;SDS011;6651;53.200;10.432;2022-12-26T17:19:20;10.07;;;2.90;;
13171;SDS011;6651;53.200;10.432;2022-12-26T17:24:30;7.55;;;2.63;;
13171;SDS011;6651;53.200;10.432;2022-12-26T17:27:06;8.20;;;2.83;;
13171;SDS011;6651;53.200;10.432;2022-12-26T17:29:38;13.68;;;3.92;;
13171;SDS011;6651;53.200;10.432;2022-12-26T17:32:11;10.27;;;2.70;;
13171;SDS011;6651;53.200;10.432;2022-12-26T17:34:39;13.70;;;3.55;;
13171;SDS011;6651;53.200;10.432;2022-12-26T17:37:05;9.57;;;3.05;;
13171;SDS011;6651;53.200;10.432;2022-12-26T17:39:39;11.25;;;2.80;;
13171;SDS011;6651;53.200;10.432;2022-12-26T17:42:05;12.65;;;3.20;;
13171;SDS011;6651;53.200;10.432;2022-12-26T17:46:59;13.73;;;5.47;;
13171;SDS011;6651;53.200;10.432;2022-12-26T17:49:26;9.63;;;3.35;;
13171;SDS011;6651;53.200;10.432;2022-12-26T17:51:52;7.80;;;3.38;;
13171;SDS011;6651;53.200;10.432;2022-12-26T17:54:18;11.60;;;3.97;;
13171;SDS011;6651;53.200;10.432;2022-12-26T17:56:44;9.75;;;3.45;;
13171;SDS011;6651;53.200;10.432;2022-12-26T17:59:13;10.57;;;2.95;;
13171;SDS011;6651;53.200;10.432;2022-12-26T18:01:39;10.25;;;2.53;;